Meteo Giornale » Osservazioni meteo Italia » Bari-Palese Macchie

ore: 09:50 - Osservazioni Meteo Bari-Palese Macchie
Lat. 41° 8' N Lon. 16° 47' E Alt. 34 metri s.l.m.

coperto_pioggia Europe/Rome

14 °C

Pioviggine Leggera

Temp. 24 Ore

14 °C

20 °C

Sud-Est

13 Km/h

Dew point 13 °C

Umidità 93 %

Visibilità  6 Km

Il sole sorge alle ore 06:30

Il sole tramonta alle ore 17:40

Data e Ora Cielo e Fenomeni T °C DP °C Um. % Pres. hPa Vis. km Vento km/h
Oggi h: 09:50 coperto_pioggia Pioviggine Leggera 14 13 93 1013 6 SE 13
Oggi h: 09:20 coperto_pioggia Pioggia 14 13 93 1013 6 N 5.5
Oggi h: 08:50 coperto_pioggia Pioggia Debole 14 12 87 1012 6 N 5.5
Oggi h: 07:20 sereno Sereno 15 12 82 1011 7 S 20.3
Oggi h: 06:50 sereno Sereno 15 12 82 1011 8 S/SO 18.5
Oggi h: 06:20 sereno Sereno 14 12 87 1011 10 S/SO 14.8
Oggi h: 05:50 sereno Sereno 14 12 87 1011 10 S/SO 18.5
Oggi h: 05:20 sereno Sereno 14 11 82 1010 10 S/SO 16.7
Oggi h: 04:20 sereno Sereno 14 11 82 1010 10 S/SE 9.3
Oggi h: 03:50 sereno Sereno 14 11 82 1010 10 N 5.5
Oggi h: 03:20 sereno Sereno 14 11 82 1010 8 N 5.5
Oggi h: 02:50 sereno Sereno 15 11 76 1009 8 S 7.4
Oggi h: 02:20 sereno Sereno 15 11 76 1009 8 S 13
Oggi h: 01:50 sereno Sereno 15 11 76 1009 8 S/SE 11.1
Oggi h: 01:20 sereno Sereno 14 11 82 1010 8 S/SE 9.3
Oggi h: 00:50 sereno Sereno 15 11 76 1010 8 SE 9.3
Oggi h: 00:20 sereno Sereno 15 11 76 1010 8 SE 11.1
Ieri h: 23:20 sereno Sereno 15 12 82 1010 8 S 16.7
Ieri h: 22:20 sereno Sereno 15 11 76 1011 8 S 16.7
Ieri h: 21:50 sereno Sereno 15 11 76 1011 8 S/SO 16.7
Ieri h: 21:20 sereno Sereno 15 11 76 1011 8 S/SO 13
Ieri h: 20:50 sereno Sereno 15 11 76 1011 8 S/SO 18.5
Ieri h: 20:20 sereno Sereno 15 11 76 1011 8 S/SO 18.5
Ieri h: 19:50 sereno Sereno 15 11 76 1010 8 S/SO 24
Ieri h: 19:20 sereno Sereno 15 11 76 1010 8 S/SO 20.3
Ieri h: 18:50 sereno Sereno 15 11 76 1010 8 S 25.9
Ieri h: 18:20 sereno Sereno 15 11 76 1009 8 S 20.3
Ieri h: 17:50 sereno Sereno 15 10 72 1009 8 S 25.9
Ieri h: 17:20 sereno Sereno 15 10 72 1010 10 S/SO 20.3
Ieri h: 16:50 sereno Sereno 15 10 72 1010 10 S/SO 20.3
Ieri h: 16:20 sereno Sereno 16 9 63 1010 10 S/SO 20.3
Ieri h: 15:50 sereno Sereno 17 8 55 1010 10 S/SO 22.2
Ieri h: 15:20 sereno Sereno 18 7 48 1011 10 S/SO 20.3
Ieri h: 14:50 sereno Sereno 18 8 51 1011 10 S/SO 18.5
Ieri h: 14:20 sereno Sereno 19 7 45 1011 10 S/SO 16.7
Ieri h: 13:20 sereno Sereno 20 7 42 1011 10 S/SO 20.3
Ieri h: 12:50 sereno Sereno 20 6 39 1012 10 S 9.3
Ieri h: 12:20 sereno Sereno 19 9 52 1012 10 S 9.3
Ieri h: 11:50 sereno Sereno 20 5 37 1013 10 S/SO 14.8
Ieri h: 11:20 sereno Sereno 19 4 37 1013 10 SO 16.7
Ieri h: 10:50 sereno Sereno 19 4 37 1013 10 SO 16.7
Ieri h: 10:20 sereno Sereno 18 6 45 1014 10 S/SO 11.1
Ieri h: 09:50 sereno Sereno 16 7 55 1014 10 S 9.3